createdAt,value
2022-10-15T00:00:51.758Z,100270.66
2022-10-15T00:03:18.317Z,100275.94
2022-10-15T00:05:44.947Z,100272.72
2022-10-15T00:08:12.865Z,100271.06
2022-10-15T00:10:39.435Z,100265.91
2022-10-15T00:13:06.681Z,100270.03
2022-10-15T00:15:36.526Z,100277.13
2022-10-15T00:18:03.052Z,100273.50
2022-10-15T00:20:30.157Z,100268.94
2022-10-15T00:22:56.686Z,100261.38
2022-10-15T00:25:23.403Z,100257.59
2022-10-15T00:27:49.881Z,100251.94
2022-10-15T00:30:17.905Z,100262.97
2022-10-15T00:32:44.578Z,100259.72
2022-10-15T00:35:11.053Z,100259.81
2022-10-15T00:37:37.496Z,100266.97
2022-10-15T00:40:04.985Z,100259.41
2022-10-15T00:42:32.377Z,100265.47
2022-10-15T00:44:59.954Z,100257.06
2022-10-15T00:47:41.166Z,100252.50
2022-10-15T00:50:12.615Z,100265.72
2022-10-15T00:53:01.551Z,100271.03
2022-10-15T00:55:34.354Z,100264.38
2022-10-15T00:58:05.462Z,100263.03
2022-10-15T01:00:33.108Z,100260.59
2022-10-15T01:03:00.087Z,100268.56
2022-10-15T01:05:28.977Z,100264.28
2022-10-15T01:07:55.659Z,100265.75
2022-10-15T01:10:27.620Z,100270.75
2022-10-15T01:13:04.908Z,100271.94
2022-10-15T01:15:46.490Z,100269.88
2022-10-15T01:18:22.374Z,100264.81
2022-10-15T01:21:27.357Z,100258.38
2022-10-15T01:24:22.653Z,100258.47
2022-10-15T01:27:13.451Z,100257.81
2022-10-15T01:30:03.913Z,100258.16
2022-10-15T01:32:37.997Z,100248.94
2022-10-15T01:35:20.576Z,100247.91
2022-10-15T01:38:07.296Z,100248.72
2022-10-15T01:40:42.613Z,100248.28
2022-10-15T01:43:15.463Z,100245.34
2022-10-15T01:46:14.686Z,100244.06
2022-10-15T01:48:49.403Z,100260.44
2022-10-15T01:51:18.095Z,100257.50
2022-10-15T01:53:46.710Z,100263.56
2022-10-15T01:56:18.065Z,100257.91
2022-10-15T01:58:46.998Z,100250.03
2022-10-15T02:01:13.800Z,100243.53
2022-10-15T02:03:50.906Z,100253.38
2022-10-15T02:06:39.212Z,100246.59
2022-10-15T02:09:57.425Z,100233.00
2022-10-15T02:12:53.164Z,100235.19
2022-10-15T02:15:28.418Z,100238.72
2022-10-15T02:18:04.482Z,100233.59
2022-10-15T02:20:45.351Z,100238.25
2022-10-15T02:23:18.814Z,100247.81
2022-10-15T02:25:47.515Z,100241.84
2022-10-15T02:28:17.020Z,100236.94
2022-10-15T02:30:46.913Z,100227.72
2022-10-15T02:33:16.139Z,100223.97
2022-10-15T02:35:44.898Z,100219.13
2022-10-15T02:38:15.312Z,100223.22
2022-10-15T02:40:44.810Z,100215.31
2022-10-15T02:43:14.041Z,100222.88
2022-10-15T02:45:41.381Z,100219.56
2022-10-15T02:48:08.224Z,100224.44
2022-10-15T02:50:34.954Z,100220.16
2022-10-15T02:53:02.642Z,100227.50
2022-10-15T02:55:29.166Z,100226.75
2022-10-15T02:57:55.765Z,100233.00
2022-10-15T03:00:22.727Z,100231.03
2022-10-15T03:02:49.501Z,100233.63
2022-10-15T03:05:18.515Z,100230.56
2022-10-15T03:07:45.008Z,100229.94
2022-10-15T03:10:11.600Z,100222.59
2022-10-15T03:12:38.371Z,100219.88
2022-10-15T03:15:06.353Z,100216.59
2022-10-15T03:17:33.558Z,100221.19
2022-10-15T03:20:00.230Z,100219.31
2022-10-15T03:22:27.469Z,100225.56
2022-10-15T03:24:53.958Z,100207.81
2022-10-15T03:27:26.566Z,100225.25
2022-10-15T03:29:53.630Z,100218.53
2022-10-15T03:32:22.080Z,100227.63
2022-10-15T03:34:48.730Z,100230.41
2022-10-15T03:37:17.670Z,100227.78
2022-10-15T03:39:45.091Z,100223.75
2022-10-15T03:42:12.204Z,100232.19
2022-10-15T03:44:44.749Z,100218.66
2022-10-15T03:47:14.961Z,100219.47
2022-10-15T03:49:46.661Z,100216.22
2022-10-15T03:52:13.830Z,100211.91
2022-10-15T03:54:41.699Z,100213.84
2022-10-15T03:57:09.357Z,100220.44
2022-10-15T04:02:15.985Z,100225.69
2022-10-15T04:04:42.666Z,100225.91
2022-10-15T04:07:09.384Z,100222.63
2022-10-15T04:09:36.377Z,100231.00
2022-10-15T04:12:21.590Z,100228.59
2022-10-15T04:14:48.624Z,100227.72
2022-10-15T04:17:15.877Z,100233.97
2022-10-15T04:19:44.855Z,100222.28
2022-10-15T04:22:13.351Z,100228.47
2022-10-15T04:24:45.869Z,100227.69
2022-10-15T04:27:17.331Z,100226.56
2022-10-15T04:29:44.214Z,100226.84
2022-10-15T04:32:15.385Z,100241.28
2022-10-15T04:34:42.832Z,100231.19
2022-10-15T04:37:10.023Z,100231.72
2022-10-15T04:39:37.434Z,100229.84
2022-10-15T04:42:04.213Z,100237.72
2022-10-15T04:44:33.050Z,100232.84
2022-10-15T04:47:00.633Z,100234.72
2022-10-15T04:49:41.539Z,100236.63
2022-10-15T04:52:27.831Z,100236.22
2022-10-15T04:54:58.568Z,100239.50
2022-10-15T04:57:27.000Z,100237.88
2022-10-15T04:59:57.685Z,100247.94
2022-10-15T05:02:33.807Z,100241.16
2022-10-15T05:05:26.893Z,100241.16
2022-10-15T05:08:04.948Z,100236.53
2022-10-15T05:10:52.030Z,100232.44
2022-10-15T05:13:19.104Z,100234.16
2022-10-15T05:15:45.634Z,100234.19
2022-10-15T05:18:12.387Z,100238.00
2022-10-15T05:20:48.701Z,100228.81
2022-10-15T05:23:18.250Z,100229.13
2022-10-15T05:25:54.212Z,100235.66
2022-10-15T05:28:23.992Z,100222.38
2022-10-15T05:30:50.531Z,100237.59
2022-10-15T05:33:17.088Z,100231.38
2022-10-15T05:35:43.768Z,100229.50
2022-10-15T05:38:10.245Z,100240.94
2022-10-15T05:40:39.159Z,100239.59
2022-10-15T05:43:11.146Z,100245.03
2022-10-15T05:45:37.693Z,100245.34
2022-10-15T05:48:06.844Z,100256.22
2022-10-15T05:50:34.276Z,100267.63
2022-10-15T05:53:02.883Z,100261.97
2022-10-15T05:55:45.182Z,100261.44
2022-10-15T05:58:11.692Z,100263.28
2022-10-15T06:00:39.659Z,100258.41
2022-10-15T06:03:06.245Z,100254.06
2022-10-15T06:05:32.921Z,100259.75
2022-10-15T06:07:59.418Z,100253.47
2022-10-15T06:10:28.289Z,100243.97
2022-10-15T06:12:55.574Z,100245.06
2022-10-15T06:15:22.256Z,100248.53
2022-10-15T06:17:53.895Z,100253.41
2022-10-15T06:20:20.317Z,100250.94
2022-10-15T06:22:46.827Z,100255.25
2022-10-15T06:25:13.698Z,100256.59
2022-10-15T06:27:40.349Z,100258.44
2022-10-15T06:30:08.726Z,100257.63
2022-10-15T06:32:35.183Z,100267.91
2022-10-15T06:35:02.179Z,100273.31
2022-10-15T06:37:30.046Z,100278.41
2022-10-15T06:39:58.443Z,100274.84
2022-10-15T06:42:25.107Z,100277.25
2022-10-15T06:44:55.084Z,100278.28
2022-10-15T06:47:22.018Z,100282.88
2022-10-15T06:49:49.858Z,100277.41
2022-10-15T06:52:16.361Z,100281.69
2022-10-15T06:54:42.895Z,100276.19
2022-10-15T06:57:10.507Z,100285.34
2022-10-15T06:59:40.313Z,100290.72
2022-10-15T07:02:10.056Z,100300.75
2022-10-15T07:04:36.700Z,100304.75
2022-10-15T07:07:03.300Z,100302.75
2022-10-15T07:09:30.050Z,100308.94
2022-10-15T07:11:56.589Z,100309.97
2022-10-15T07:14:23.082Z,100314.78
2022-10-15T07:16:49.581Z,100313.13
2022-10-15T07:19:16.103Z,100306.50
2022-10-15T07:21:42.808Z,100317.91
2022-10-15T07:24:10.795Z,100317.56
2022-10-15T07:26:37.327Z,100321.03
2022-10-15T07:29:04.359Z,100313.34
2022-10-15T07:31:31.503Z,100313.25
2022-10-15T07:33:58.018Z,100305.88
2022-10-15T07:36:25.868Z,100308.81
2022-10-15T07:38:52.943Z,100305.78
2022-10-15T07:41:19.475Z,100303.66
2022-10-15T07:43:45.969Z,100308.28
2022-10-15T07:46:12.451Z,100310.69
2022-10-15T07:48:38.957Z,100304.38
2022-10-15T07:51:07.362Z,100307.03
2022-10-15T07:53:34.297Z,100301.22
2022-10-15T07:56:03.622Z,100292.41
2022-10-15T07:58:34.485Z,100298.53
2022-10-15T08:01:08.813Z,100302.19
2022-10-15T08:03:36.102Z,100303.78
2022-10-15T08:06:07.018Z,100296.84
2022-10-15T08:08:34.272Z,100298.66
2022-10-15T08:11:11.737Z,100302.44
2022-10-15T08:13:41.600Z,100303.66
2022-10-15T08:16:13.054Z,100314.72
2022-10-15T08:18:40.446Z,100310.78
2022-10-15T08:21:08.124Z,100303.34
2022-10-15T08:23:35.783Z,100309.72
2022-10-15T08:26:03.123Z,100302.78
2022-10-15T08:28:30.844Z,100302.88
2022-10-15T08:31:02.646Z,100308.16
2022-10-15T08:33:32.453Z,100303.91
2022-10-15T08:35:58.963Z,100293.22
2022-10-15T08:38:25.634Z,100297.25
2022-10-15T08:40:54.784Z,100302.31
2022-10-15T08:43:37.334Z,100312.50
2022-10-15T08:46:11.354Z,100311.81
2022-10-15T08:48:50.692Z,100312.94
2022-10-15T08:51:20.260Z,100310.00
2022-10-15T08:53:54.207Z,100313.34
2022-10-15T08:56:37.058Z,100312.81
2022-10-15T08:59:25.214Z,100316.34
2022-10-15T09:02:03.156Z,100310.66
2022-10-15T09:04:51.224Z,100310.13
2022-10-15T09:07:34.669Z,100306.03
2022-10-15T09:10:17.829Z,100313.00
2022-10-15T09:13:07.259Z,100314.28
2022-10-15T09:15:41.168Z,100318.56
2022-10-15T09:18:17.355Z,100316.94
2022-10-15T09:20:44.895Z,100313.16
2022-10-15T09:23:18.976Z,100313.19
2022-10-15T09:25:52.027Z,100317.25
2022-10-15T09:28:21.876Z,100318.44
2022-10-15T09:30:53.064Z,100317.41
2022-10-15T09:33:43.680Z,100314.75
2022-10-15T09:36:25.545Z,100316.75
2022-10-15T09:39:04.250Z,100309.88
2022-10-15T09:42:03.496Z,100309.91
2022-10-15T09:44:36.586Z,100304.25
2022-10-15T09:47:33.989Z,100300.22
2022-10-15T09:50:03.828Z,100302.13
2022-10-15T09:52:52.209Z,100307.06
2022-10-15T09:55:58.019Z,100302.56
2022-10-15T09:58:33.771Z,100306.63
2022-10-15T10:01:05.657Z,100305.06
2022-10-15T10:03:36.693Z,100308.16
2022-10-15T10:06:11.942Z,100303.22
2022-10-15T10:08:54.735Z,100306.31
2022-10-15T10:11:24.151Z,100304.88
2022-10-15T10:13:59.374Z,100294.88
2022-10-15T10:16:26.999Z,100302.47
2022-10-15T10:19:15.478Z,100302.16
2022-10-15T10:21:43.669Z,100304.91
2022-10-15T10:24:26.187Z,100305.72
2022-10-15T10:26:52.759Z,100306.69
2022-10-15T10:29:33.625Z,100306.38
2022-10-15T10:32:28.197Z,100296.72
2022-10-15T10:34:55.401Z,100300.50
2022-10-15T10:37:23.011Z,100287.41
2022-10-15T10:39:59.333Z,100287.25
2022-10-15T10:42:38.142Z,100286.44
2022-10-15T10:45:18.761Z,100292.56
2022-10-15T10:47:45.829Z,100293.00
2022-10-15T10:50:34.588Z,100289.78
2022-10-15T10:53:19.985Z,100290.53
2022-10-15T10:55:46.624Z,100286.97
2022-10-15T10:58:26.316Z,100286.16
2022-10-15T11:00:55.518Z,100284.75
2022-10-15T11:03:38.866Z,100279.78
2022-10-15T11:06:35.687Z,100284.25
2022-10-15T11:09:14.583Z,100284.81
2022-10-15T11:12:14.023Z,100280.13
2022-10-15T11:15:30.979Z,100278.00
2022-10-15T11:18:28.893Z,100277.31
2022-10-15T11:21:26.320Z,100280.59
2022-10-15T11:24:26.012Z,100278.03
2022-10-15T11:27:10.046Z,100272.00
2022-10-15T11:30:03.585Z,100265.59
2022-10-15T11:32:47.779Z,100264.50
2022-10-15T11:35:51.683Z,100263.25
2022-10-15T11:38:24.603Z,100265.06
2022-10-15T11:41:15.029Z,100254.25
2022-10-15T11:43:44.184Z,100244.25
2022-10-15T11:46:44.243Z,100239.88
2022-10-15T11:49:54.553Z,100247.78
2022-10-15T11:52:37.712Z,100249.91
2022-10-15T11:55:13.829Z,100246.81
2022-10-15T11:57:42.537Z,100233.41
2022-10-15T12:00:27.154Z,100230.94
2022-10-15T12:02:55.401Z,100231.56
2022-10-15T12:05:32.226Z,100226.19
2022-10-15T12:07:59.425Z,100224.09
2022-10-15T12:11:03.078Z,100228.47
2022-10-15T12:13:56.458Z,100217.66
2022-10-15T12:16:41.734Z,100205.38
2022-10-15T12:19:13.911Z,100206.09
2022-10-15T12:21:45.266Z,100203.56
2022-10-15T12:24:39.802Z,100193.97
2022-10-15T12:27:22.814Z,100183.84
2022-10-15T12:29:59.982Z,100193.75
2022-10-15T12:32:36.181Z,100193.28
2022-10-15T12:35:06.165Z,100191.41
2022-10-15T12:37:36.065Z,100177.38
2022-10-15T12:40:17.846Z,100181.81
2022-10-15T12:42:44.595Z,100174.41
2022-10-15T12:45:22.885Z,100171.44
2022-10-15T12:47:50.227Z,100170.44
2022-10-15T12:50:28.274Z,100170.56
2022-10-15T12:53:18.344Z,100165.97
2022-10-15T12:56:28.616Z,100158.84
2022-10-15T12:58:56.459Z,100159.41
2022-10-15T13:01:23.011Z,100161.81
2022-10-15T13:03:52.711Z,100151.94
2022-10-15T13:06:22.429Z,100155.38
2022-10-15T13:09:11.960Z,100156.63
2022-10-15T13:11:48.819Z,100154.13
2022-10-15T13:14:36.000Z,100150.19
2022-10-15T13:17:14.840Z,100151.59
2022-10-15T13:19:48.344Z,100147.34
2022-10-15T13:22:24.919Z,100142.16
2022-10-15T13:24:52.132Z,100136.47
2022-10-15T13:27:37.547Z,100135.88
2022-10-15T13:30:13.172Z,100141.59
2022-10-15T13:32:47.767Z,100131.84
2022-10-15T13:35:33.057Z,100130.25
2022-10-15T13:38:00.337Z,100141.38
2022-10-15T13:40:29.457Z,100137.34
2022-10-15T13:43:19.439Z,100125.31
2022-10-15T13:45:47.958Z,100127.53
2022-10-15T13:48:22.049Z,100123.19
2022-10-15T13:50:52.945Z,100123.53
2022-10-15T13:53:24.376Z,100129.56
2022-10-15T13:55:54.130Z,100123.13
2022-10-15T13:58:29.170Z,100113.63
2022-10-15T14:01:08.389Z,100115.34
2022-10-15T14:03:36.790Z,100104.63
2022-10-15T14:06:19.834Z,100099.50
2022-10-15T14:08:48.349Z,100105.34
2022-10-15T14:11:15.393Z,100103.59
2022-10-15T14:13:49.052Z,100105.09
2022-10-15T14:16:19.448Z,100098.25
2022-10-15T14:18:49.647Z,100096.28
2022-10-15T14:21:19.793Z,100094.13
2022-10-15T14:23:47.689Z,100097.91
2022-10-15T14:26:16.884Z,100112.56
2022-10-15T14:28:50.267Z,100112.44
2022-10-15T14:31:38.361Z,100112.88
2022-10-15T14:34:35.561Z,100121.78
2022-10-15T14:37:03.292Z,100122.03
2022-10-15T14:39:32.873Z,100122.50
2022-10-15T14:42:05.231Z,100115.88
2022-10-15T14:44:48.388Z,100119.31
2022-10-15T14:47:24.528Z,100120.31
2022-10-15T14:49:59.906Z,100125.41
2022-10-15T14:52:28.864Z,100124.47
2022-10-15T14:55:15.848Z,100132.66
2022-10-15T14:57:45.146Z,100138.47
2022-10-15T15:00:24.334Z,100147.78
2022-10-15T15:02:54.218Z,100141.22
2022-10-15T15:05:24.061Z,100134.78
2022-10-15T15:07:51.209Z,100136.06
2022-10-15T15:10:18.101Z,100143.25
2022-10-15T15:12:49.879Z,100133.09
2022-10-15T15:15:18.344Z,100132.84
2022-10-15T15:17:45.285Z,100131.13
2022-10-15T15:20:12.208Z,100137.22
2022-10-15T15:22:40.319Z,100126.91
2022-10-15T15:25:16.709Z,100133.19
2022-10-15T15:27:43.261Z,100128.41
2022-10-15T15:30:40.241Z,100130.06
2022-10-15T15:33:11.628Z,100134.56
2022-10-15T15:35:52.699Z,100136.25
2022-10-15T15:38:21.561Z,100138.66
2022-10-15T15:40:49.404Z,100132.25
2022-10-15T15:43:19.166Z,100133.69
2022-10-15T15:45:46.486Z,100130.00
2022-10-15T15:48:14.098Z,100126.94
2022-10-15T15:50:41.053Z,100134.50
2022-10-15T15:53:07.570Z,100124.19
2022-10-15T15:55:34.054Z,100124.97
2022-10-15T15:58:00.677Z,100127.75
2022-10-15T16:00:27.417Z,100126.78
2022-10-15T16:02:57.764Z,100135.19
2022-10-15T16:05:24.995Z,100133.28
2022-10-15T16:07:51.488Z,100132.59
2022-10-15T16:10:18.203Z,100126.63
2022-10-15T16:12:44.768Z,100134.38
2022-10-15T16:15:14.493Z,100141.50
2022-10-15T16:17:43.137Z,100145.69
2022-10-15T16:20:10.671Z,100145.69
2022-10-15T16:22:37.119Z,100143.59
2022-10-15T16:25:05.580Z,100147.63
2022-10-15T16:27:34.298Z,100139.72
2022-10-15T16:30:01.799Z,100149.41
2022-10-15T16:32:28.416Z,100146.47
2022-10-15T16:34:54.877Z,100148.41
2022-10-15T16:37:21.282Z,100150.69
2022-10-15T16:39:47.742Z,100151.00
2022-10-15T16:42:14.223Z,100152.78
2022-10-15T16:44:40.782Z,100156.63
2022-10-15T16:47:08.905Z,100155.19
2022-10-15T16:49:35.412Z,100156.50
2022-10-15T16:52:01.955Z,100149.88
2022-10-15T16:54:28.493Z,100158.72
2022-10-15T16:56:55.273Z,100161.47
2022-10-15T16:59:22.403Z,100168.75
2022-10-15T17:01:48.919Z,100166.94
2022-10-15T17:04:15.384Z,100165.84
2022-10-15T17:06:42.055Z,100170.19
2022-10-15T17:09:08.969Z,100183.38
2022-10-15T17:11:40.959Z,100186.28
2022-10-15T17:14:10.502Z,100180.81
2022-10-15T17:16:40.023Z,100177.59
2022-10-15T17:19:07.990Z,100179.22
2022-10-15T17:21:35.553Z,100182.28
2022-10-15T17:24:04.942Z,100190.66
2022-10-15T17:26:36.326Z,100181.16
2022-10-15T17:29:03.999Z,100183.22
2022-10-15T17:31:30.875Z,100181.78
2022-10-15T17:34:03.939Z,100189.69
2022-10-15T17:36:32.215Z,100193.53
2022-10-15T17:38:59.841Z,100203.38
2022-10-15T17:41:29.435Z,100218.03
2022-10-15T17:43:57.580Z,100228.53
2022-10-15T17:46:27.326Z,100230.31
2022-10-15T17:48:55.031Z,100239.00
2022-10-15T17:51:27.151Z,100235.47
2022-10-15T17:53:57.630Z,100229.66
2022-10-15T17:56:30.026Z,100227.06
2022-10-15T17:58:58.457Z,100229.19
2022-10-15T18:01:39.352Z,100231.59
2022-10-15T18:04:12.914Z,100240.31
2022-10-15T18:06:43.199Z,100243.19
2022-10-15T18:09:12.407Z,100254.16
2022-10-15T18:11:38.945Z,100253.31
2022-10-15T18:14:05.543Z,100250.09
2022-10-15T18:16:32.588Z,100259.28
2022-10-15T18:18:59.212Z,100259.09
2022-10-15T18:21:27.458Z,100267.31
2022-10-15T18:23:56.478Z,100268.47
2022-10-15T18:26:23.746Z,100271.69
2022-10-15T18:28:51.855Z,100274.25
2022-10-15T18:31:19.279Z,100270.69
2022-10-15T18:33:54.794Z,100281.16
2022-10-15T18:36:24.584Z,100275.69
2022-10-15T18:38:51.634Z,100281.50
2022-10-15T18:41:22.401Z,100294.22
2022-10-15T18:43:53.508Z,100301.59
2022-10-15T18:46:20.509Z,100305.81
2022-10-15T18:48:47.054Z,100310.78
2022-10-15T18:51:13.567Z,100317.38
2022-10-15T18:53:40.185Z,100309.78
2022-10-15T18:56:08.067Z,100300.47
2022-10-15T18:58:34.939Z,100299.00
2022-10-15T19:01:14.354Z,100306.72
2022-10-15T19:03:40.944Z,100306.53
2022-10-15T19:06:08.158Z,100312.19
2022-10-15T19:08:34.754Z,100317.31
2022-10-15T19:11:08.586Z,100325.84
2022-10-15T19:13:36.496Z,100320.69
2022-10-15T19:16:04.407Z,100325.03
2022-10-15T19:18:32.101Z,100335.47
2022-10-15T19:20:58.831Z,100335.97
2022-10-15T19:23:26.313Z,100340.97
2022-10-15T19:25:52.759Z,100333.38
2022-10-15T19:28:19.348Z,100339.69
2022-10-15T19:30:54.713Z,100339.16
2022-10-15T19:33:21.260Z,100345.16
2022-10-15T19:35:47.717Z,100340.78
2022-10-15T19:38:14.149Z,100353.53
2022-10-15T19:40:44.745Z,100361.91
2022-10-15T19:43:13.851Z,100364.84
2022-10-15T19:45:45.282Z,100365.47
2022-10-15T19:48:14.070Z,100362.91
2022-10-15T19:50:42.333Z,100364.34
2022-10-15T19:53:13.823Z,100364.03
2022-10-15T19:55:40.442Z,100362.28
2022-10-15T19:58:07.510Z,100361.97
2022-10-15T20:00:34.453Z,100365.81
2022-10-15T20:03:01.645Z,100370.34
2022-10-15T20:05:28.700Z,100385.97
2022-10-15T20:07:56.127Z,100390.72
2022-10-15T20:10:25.991Z,100393.88
2022-10-15T20:12:53.407Z,100391.44
2022-10-15T20:15:20.102Z,100404.84
2022-10-15T20:17:47.147Z,100403.75
2022-10-15T20:20:13.615Z,100412.47
2022-10-15T20:22:40.179Z,100411.66
2022-10-15T20:25:06.977Z,100413.34
2022-10-15T20:27:33.747Z,100423.06
2022-10-15T20:30:00.202Z,100445.41
2022-10-15T20:32:35.718Z,100439.63
2022-10-15T20:35:04.396Z,100446.53
2022-10-15T20:37:30.921Z,100451.66
2022-10-15T20:42:29.064Z,100464.56
2022-10-15T20:44:55.894Z,100470.66
2022-10-15T20:47:24.010Z,100472.47
2022-10-15T20:49:53.431Z,100468.13
2022-10-15T20:52:23.003Z,100478.22
2022-10-15T20:54:50.986Z,100480.56
2022-10-15T20:57:17.462Z,100487.34
2022-10-15T20:59:44.223Z,100490.28
2022-10-15T21:02:10.658Z,100492.31
2022-10-15T21:04:37.108Z,100497.09
2022-10-15T21:07:03.914Z,100502.16
2022-10-15T21:09:30.375Z,100505.91
2022-10-15T21:11:57.045Z,100496.06
2022-10-15T21:14:23.779Z,100495.88
2022-10-15T21:16:50.328Z,100513.94
2022-10-15T21:19:16.859Z,100518.59
2022-10-15T21:21:43.369Z,100516.59
2022-10-15T21:24:09.808Z,100518.72
2022-10-15T21:26:36.440Z,100526.81
2022-10-15T21:29:03.227Z,100530.47
2022-10-15T21:31:29.987Z,100528.63
2022-10-15T21:33:56.999Z,100525.00
2022-10-15T21:36:26.596Z,100528.25
2022-10-15T21:38:58.884Z,100535.44
2022-10-15T21:41:27.127Z,100533.13
2022-10-15T21:43:54.006Z,100528.25
2022-10-15T21:46:20.484Z,100530.81
2022-10-15T21:48:47.099Z,100529.56
2022-10-15T21:51:16.748Z,100538.78
2022-10-15T21:53:44.059Z,100543.75
2022-10-15T21:56:11.519Z,100547.38
2022-10-15T21:58:39.131Z,100548.41
2022-10-15T22:01:09.888Z,100553.56
2022-10-15T22:03:36.800Z,100547.81
2022-10-15T22:06:03.918Z,100552.03
2022-10-15T22:08:31.090Z,100543.53
2022-10-15T22:11:14.055Z,100548.38
2022-10-15T22:13:44.936Z,100545.25
2022-10-15T22:16:12.308Z,100547.84
2022-10-15T22:18:39.915Z,100556.94
2022-10-15T22:21:17.163Z,100559.47
2022-10-15T22:23:47.633Z,100561.75
2022-10-15T22:26:16.451Z,100563.78
2022-10-15T22:28:44.881Z,100564.94
2022-10-15T22:31:16.472Z,100558.16
2022-10-15T22:33:44.646Z,100566.34
2022-10-15T22:36:17.502Z,100560.38
2022-10-15T22:38:45.985Z,100562.16
2022-10-15T22:41:13.421Z,100565.19
2022-10-15T22:43:40.280Z,100584.16
2022-10-15T22:46:07.691Z,100583.72
2022-10-15T22:48:39.402Z,100581.38
2022-10-15T22:51:08.603Z,100576.19
2022-10-15T22:53:35.194Z,100583.84
2022-10-15T22:56:04.333Z,100587.50
2022-10-15T22:58:31.998Z,100581.44
2022-10-15T23:01:13.298Z,100574.94
2022-10-15T23:03:41.575Z,100580.47
2022-10-15T23:06:08.270Z,100577.75
2022-10-15T23:08:35.691Z,100582.69
2022-10-15T23:11:10.850Z,100575.31
2022-10-15T23:13:38.798Z,100582.97
2022-10-15T23:16:11.046Z,100577.09
2022-10-15T23:18:37.942Z,100591.59
2022-10-15T23:21:06.708Z,100596.47
2022-10-15T23:23:33.415Z,100590.25
2022-10-15T23:25:59.863Z,100594.97
2022-10-15T23:28:26.583Z,100598.28
2022-10-15T23:30:53.143Z,100602.66
2022-10-15T23:33:19.595Z,100590.09
2022-10-15T23:35:46.135Z,100592.31
2022-10-15T23:38:13.442Z,100593.19
2022-10-15T23:40:39.890Z,100593.75
2022-10-15T23:43:06.356Z,100594.88
2022-10-15T23:45:34.841Z,100594.88
2022-10-15T23:48:03.377Z,100603.34
2022-10-15T23:50:36.452Z,100596.25
2022-10-15T23:53:03.357Z,100594.34
2022-10-15T23:55:29.811Z,100592.44
2022-10-15T23:57:56.486Z,100598.41
